Map

Track Data

SID SEASON NUMBER BASIN SUBBASIN NAME ISO_TIME NATURE LAT LON WMO_WIND WMO_PRES WMO_AGENCY TRACK_TYPE DIST2LAND LANDFALL IFLAG USA_AGENCY USA_ATCF_ID USA_LAT USA_LON USA_RECORD USA_STATUS USA_WIND USA_PRES USA_SSHS USA_R34_NE USA_R34_SE USA_R34_SW USA_R34_NW USA_R50_NE USA_R50_SE USA_R50_SW USA_R50_NW USA_R64_NE USA_R64_SE USA_R64_SW USA_R64_NW USA_POCI USA_ROCI USA_RMW USA_EYE TOKYO_LAT TOKYO_LON TOKYO_GRADE TOKYO_WIND TOKYO_PRES TOKYO_R50_DIR TOKYO_R50_LONG TOKYO_R50_SHORT TOKYO_R30_DIR TOKYO_R30_LONG TOKYO_R30_SHORT TOKYO_LAND CMA_LAT CMA_LON CMA_CAT CMA_WIND CMA_PRES HKO_LAT HKO_LON HKO_CAT HKO_WIND HKO_PRES NEWDELHI_LAT NEWDELHI_LON NEWDELHI_GRADE NEWDELHI_WIND NEWDELHI_PRES NEWDELHI_CI NEWDELHI_DP NEWDELHI_POCI REUNION_LAT REUNION_LON REUNION_TYPE REUNION_WIND REUNION_PRES REUNION_TNUM REUNION_CI REUNION_RMW REUNION_R34_NE REUNION_R34_SE REUNION_R34_SW REUNION_R34_NW REUNION_R50_NE REUNION_R50_SE REUNION_R50_SW REUNION_R50_NW REUNION_R64_NE REUNION_R64_SE REUNION_R64_SW REUNION_R64_NW BOM_LAT BOM_LON BOM_TYPE BOM_WIND BOM_PRES BOM_TNUM BOM_CI BOM_RMW BOM_R34_NE BOM_R34_SE BOM_R34_SW BOM_R34_NW BOM_R50_NE BOM_R50_SE BOM_R50_SW BOM_R50_NW BOM_R64_NE BOM_R64_SE BOM_R64_SW BOM_R64_NW BOM_ROCI BOM_POCI BOM_EYE BOM_POS_METHOD BOM_PRES_METHOD NADI_LAT NADI_LON NADI_CAT NADI_WIND NADI_PRES WELLINGTON_LAT WELLINGTON_LON WELLINGTON_WIND WELLINGTON_PRES DS824_LAT DS824_LON DS824_STAGE DS824_WIND DS824_PRES TD9636_LAT TD9636_LON TD9636_STAGE TD9636_WIND TD9636_PRES TD9635_LAT TD9635_LON TD9635_WIND TD9635_PRES TD9635_ROCI NEUMANN_LAT NEUMANN_LON NEUMANN_CLASS NEUMANN_WIND NEUMANN_PRES MLC_LAT MLC_LON MLC_CLASS MLC_WIND MLC_PRES USA_GUST BOM_GUST BOM_GUST_PER REUNION_GUST REUNION_GUST_PER USA_SEAHGT USA_SEARAD_NE USA_SEARAD_SE USA_SEARAD_SW USA_SEARAD_NW STORM_SPEED STORM_DIR
1986334N06113 1986 116 WP MM NOT_NAMED 1986-11-29 12:00:00 TS 6.00000 113.000 main 192 190 __O___________ -1 6.00000 113.000 0 19 1008 16 52
1986334N06113 1986 116 WP MM NOT_NAMED 1986-11-29 15:00:00 TS 6.48759 113.637 main 217 212 __P___________ -1 6.48759 113.637 0 19 1007 16 52
1986334N06113 1986 116 WP MM NOT_NAMED 1986-11-29 18:00:00 TS 7.00000 114.300 main 214 204 __O___________ -1 7.00000 114.300 0 19 1006 17 52
1986334N06113 1986 116 WP MM NOT_NAMED 1986-11-29 21:00:00 TS 7.53758 114.975 main 196 180 __P___________ -1 7.53758 114.975 0 19 1006 16 50
1986334N06113 1986 116 WP MM NOT_NAMED 1986-11-30 00:00:00 TS 8.00000 115.500 main 180 165 __O___________ -1 8.00000 115.500 0 19 1006 11 45
1986334N06113 1986 116 WP MM NOT_NAMED 1986-11-30 03:00:00 TS 8.28734 115.725 main 165 154 __P___________ -1 8.28734 115.725 0 19 1006 6 31
1986334N06113 1986 116 WP MM NOT_NAMED 1986-11-30 06:00:00 TS 8.50000 115.800 main 155 139 __O___________ -1 8.50000 115.800 0 19 1006 5 26
1986334N06113 1986 116 WP MM NOT_NAMED 1986-11-30 09:00:00 TS 8.75748 115.960 main 143 143 __P___________ -1 8.75748 115.960 0 19 1006 5 22
1986334N06113 1986 116 WP MM NOT_NAMED 1986-11-30 12:00:00 TS 9.00000 116.000 main 149 149 __O___________ -1 9.00000 116.000 0 19 1006 5 343
1986334N06113 1986 116 WP MM NOT_NAMED 1986-11-30 15:00:00 TS 9.21500 115.818 main 178 178 __P___________ -1 9.21500 115.818 0 19 1006 6 309
1986334N06113 1986 116 WP MM NOT_NAMED 1986-11-30 18:00:00 TS 9.40000 115.500 main 217 217 __O___________ -1 9.40000 115.500 0 19 1006 7 300
1986334N06113 1986 116 WP MM NOT_NAMED 1986-11-30 21:00:00 TS 9.55733 115.210 main 256 256 __P___________ -1 9.55733 115.210 0 19 1005 8 294
1986334N06113 1986 116 WP MM NOT_NAMED 1986-12-01 00:00:00 TS 9.70000 114.800 main 301 301 __O___________ -1 9.70000 114.800 0 19 1004 11 285
1986334N06113 1986 116 WP MM NOT_NAMED 1986-12-01 03:00:00 TS 9.84278 114.158 main 366 366 __P___________ -1 9.84278 114.158 0 19 1004 13 283
1986334N06113 1986 116 WP MM NOT_NAMED 1986-12-01 06:00:00 TS 10.0000 113.500 main 445 445 __O___________ -1 10.0000 113.500 0 19 1004 11 288
1986334N06113 1986 116 WP MM NOT_NAMED 1986-12-01 09:00:00 TS 10.1847 113.077 main 456 407 __P___________ -1 10.1847 113.077 0 19 1004 9 297
1986334N06113 1986 116 WP MM NOT_NAMED 1986-12-01 12:00:00 TS 10.4000 112.700 main 407 343 __O___________ -1 10.4000 112.700 0 19 1004 10 299
1986334N06113 1986 116 WP MM NOT_NAMED 1986-12-01 15:00:00 TS 10.6726 112.193 main 343 284 __P___________ -1 10.6726 112.193 0 21 1003 11 297
1986334N06113 1986 116 WP MM NOT_NAMED 1986-12-01 18:00:00 TS 10.9000 111.700 main 284 250 __O___________ -1 10.9000 111.700 1 23 1002 9 291
1986334N06113 1986 116 WP MM NOT_NAMED 1986-12-01 21:00:00 TS 10.9872 111.357 main 250 211 __P___________ -1 10.9872 111.357 1 26 1002 7 278
1986334N06113 1986 116 WP MM NOT_NAMED 1986-12-02 00:00:00 TS 11.0000 111.000 main 211 162 __O___________ -1 11.0000 111.000 1 29 1002 9 271
1986334N06113 1986 116 WP MM NOT_NAMED 1986-12-02 03:00:00 TS 11.0075 110.487 main 162 107 __P___________ -1 11.0075 110.487 1 29 1002 11 270
1986334N06113 1986 116 WP MM NOT_NAMED 1986-12-02 06:00:00 TS 11.0000 109.900 main 107 55 __O___________ -1 11.0000 109.900 1 29 1002 12 270
1986334N06113 1986 116 WP MM NOT_NAMED 1986-12-02 09:00:00 TS 10.9977 109.300 main 55 22 __P___________ -1 10.9977 109.300 1 26 1003 12 270
1986334N06113 1986 116 WP MM NOT_NAMED 1986-12-02 12:00:00 TS 11.0000 108.700 main 22 __O___________ -1 11.0000 108.700 1 23 1004 12 270

Digital Typhoon Data and Search

About IBTrACS Database

This database is a web-friendly format of International Best Track Archive for Climate Stewardship (IBTrACS), a global best track data archive curated by NOAA dating back to 1842.

Updated: 2021-10-19